createdAt,value
2022-11-14T00:01:49.040Z,57.27
2022-11-14T00:04:10.481Z,22.87
2022-11-14T00:06:32.271Z,71.93
2022-11-14T00:08:53.710Z,25.60
2022-11-14T00:11:15.165Z,79.47
2022-11-14T00:13:36.664Z,135.27
2022-11-14T00:15:58.130Z,128.30
2022-11-14T00:18:20.219Z,127.10
2022-11-14T00:20:41.651Z,144.27
2022-11-14T00:23:03.197Z,88.73
2022-11-14T00:25:24.820Z,242.30
2022-11-14T00:27:46.283Z,180.40
2022-11-14T00:30:08.261Z,273.00
2022-11-14T00:32:31.251Z,42.23
2022-11-14T00:34:52.682Z,24.83
2022-11-14T00:37:14.193Z,81.70
2022-11-14T00:39:35.692Z,149.53
2022-11-14T00:41:57.131Z,158.90
2022-11-14T00:44:18.579Z,170.53
2022-11-14T00:46:40.092Z,153.27
2022-11-14T00:49:01.595Z,110.27
2022-11-14T00:51:23.206Z,115.70
2022-11-14T00:53:44.646Z,133.43
2022-11-14T00:56:06.333Z,110.10
2022-11-14T00:58:28.268Z,152.57
2022-11-14T01:00:49.978Z,101.87
2022-11-14T01:03:11.513Z,149.73
2022-11-14T01:05:32.997Z,114.30
2022-11-14T01:07:54.523Z,142.27
2022-11-14T01:10:17.021Z,151.53
2022-11-14T01:12:38.441Z,125.70
2022-11-14T01:14:59.903Z,61.23
2022-11-14T01:17:21.666Z,109.53
2022-11-14T01:19:43.107Z,209.03
2022-11-14T01:22:06.499Z,167.20
2022-11-14T01:24:28.262Z,221.43
2022-11-14T01:26:49.733Z,203.50
2022-11-14T01:29:11.245Z,220.20
2022-11-14T01:31:32.697Z,185.90
2022-11-14T01:33:54.398Z,134.37
2022-11-14T01:36:16.592Z,105.60
2022-11-14T01:38:38.123Z,138.83
2022-11-14T01:41:00.343Z,125.87
2022-11-14T01:43:24.462Z,200.37
2022-11-14T01:46:02.525Z,77.40
2022-11-14T01:48:41.574Z,72.20
2022-11-14T01:51:42.768Z,151.03
2022-11-14T01:54:10.571Z,142.03
2022-11-14T01:56:36.958Z,69.00
2022-11-14T01:59:04.739Z,106.60
2022-11-14T02:01:29.629Z,173.07
2022-11-14T02:03:53.115Z,163.40
2022-11-14T02:06:18.451Z,156.83
2022-11-14T02:08:40.757Z,156.23
2022-11-14T02:11:02.216Z,169.70
2022-11-14T02:13:23.819Z,141.90
2022-11-14T02:15:45.299Z,164.97
2022-11-14T02:18:06.735Z,192.87
2022-11-14T02:20:32.946Z,212.77
2022-11-14T02:22:54.653Z,185.43
2022-11-14T02:25:18.625Z,269.40
2022-11-14T02:27:40.453Z,212.70
2022-11-14T02:30:17.302Z,88.00
2022-11-14T02:35:20.494Z,235.50
2022-11-14T02:37:42.222Z,200.03
2022-11-14T02:40:04.560Z,211.23
2022-11-14T02:42:26.046Z,144.50
2022-11-14T02:44:47.508Z,174.93
2022-11-14T02:47:08.929Z,85.93
2022-11-14T02:49:30.366Z,51.97
2022-11-14T02:51:51.771Z,73.43
2022-11-14T02:54:13.280Z,84.03
2022-11-14T02:56:35.083Z,46.43
2022-11-14T02:58:56.564Z,72.03
2022-11-14T03:01:21.212Z,65.50
2022-11-14T03:03:43.038Z,109.60
2022-11-14T03:06:05.045Z,75.03
2022-11-14T03:08:26.821Z,67.53
2022-11-14T03:10:48.347Z,57.53
2022-11-14T03:13:09.800Z,44.20
2022-11-14T03:15:31.241Z,51.10
2022-11-14T03:17:52.761Z,59.10
2022-11-14T03:20:14.262Z,56.80
2022-11-14T03:22:35.784Z,21.40
2022-11-14T03:24:57.249Z,70.30
2022-11-14T03:27:19.289Z,23.50
2022-11-14T03:29:40.786Z,20.73
2022-11-14T03:32:02.218Z,37.53
2022-11-14T03:34:23.689Z,23.03
2022-11-14T03:36:45.267Z,42.43
2022-11-14T03:39:06.810Z,38.83
2022-11-14T03:41:28.251Z,66.27
2022-11-14T03:43:49.704Z,51.57
2022-11-14T03:46:11.142Z,53.33
2022-11-14T03:48:33.043Z,42.63
2022-11-14T03:50:55.069Z,45.17
2022-11-14T03:53:16.508Z,71.03
2022-11-14T03:55:38.942Z,54.40
2022-11-14T03:58:00.647Z,102.23
2022-11-14T04:00:22.214Z,17.70
2022-11-14T04:02:43.700Z,72.93
2022-11-14T04:05:05.288Z,46.93
2022-11-14T04:07:26.780Z,21.73
2022-11-14T04:09:48.319Z,37.60
2022-11-14T04:12:14.416Z,12.37
2022-11-14T04:14:37.255Z,23.37
2022-11-14T04:16:58.686Z,28.10
2022-11-14T04:19:20.122Z,14.43
2022-11-14T04:21:41.599Z,53.80
2022-11-14T04:24:05.920Z,29.70
2022-11-14T04:26:31.376Z,37.47
2022-11-14T04:28:52.801Z,33.60
2022-11-14T04:31:14.247Z,26.10
2022-11-14T04:33:35.701Z,15.27
2022-11-14T04:35:57.143Z,20.87
2022-11-14T04:38:18.639Z,27.57
2022-11-14T04:40:40.046Z,15.83
2022-11-14T04:43:01.513Z,23.53
2022-11-14T04:45:23.096Z,19.87
2022-11-14T04:47:44.663Z,22.27
2022-11-14T04:50:06.681Z,48.17
2022-11-14T04:52:28.622Z,57.80
2022-11-14T04:54:50.046Z,26.83
2022-11-14T04:57:11.500Z,44.53
2022-11-14T04:59:32.999Z,41.17
2022-11-14T05:01:54.494Z,51.37
2022-11-14T05:04:15.973Z,26.60
2022-11-14T05:06:37.388Z,91.47
2022-11-14T05:08:58.885Z,17.10
2022-11-14T05:11:24.173Z,19.90
2022-11-14T05:13:49.467Z,17.30
2022-11-14T05:16:11.419Z,32.57
2022-11-14T05:18:33.030Z,33.67
2022-11-14T05:20:58.331Z,17.93
2022-11-14T05:23:22.810Z,22.13
2022-11-14T05:25:44.236Z,21.13
2022-11-14T05:28:05.682Z,18.30
2022-11-14T05:30:27.152Z,24.47
2022-11-14T05:32:48.653Z,18.63
2022-11-14T05:35:10.441Z,23.43
2022-11-14T05:37:32.087Z,40.57
2022-11-14T05:39:53.557Z,28.90
2022-11-14T05:42:15.014Z,48.07
2022-11-14T05:44:36.462Z,97.37
2022-11-14T05:46:58.065Z,61.37
2022-11-14T05:49:22.074Z,14.03
2022-11-14T05:51:43.790Z,43.30
2022-11-14T05:54:05.432Z,31.53
2022-11-14T05:56:26.957Z,29.20
2022-11-14T05:58:48.420Z,49.60
2022-11-14T06:01:15.589Z,18.83
2022-11-14T06:03:39.539Z,15.30
2022-11-14T06:06:06.349Z,20.90
2022-11-14T06:08:29.757Z,14.33
2022-11-14T06:10:51.578Z,13.70
2022-11-14T06:13:13.120Z,13.43
2022-11-14T06:15:34.531Z,28.10
2022-11-14T06:17:56.069Z,29.47
2022-11-14T06:20:17.625Z,29.97
2022-11-14T06:22:40.533Z,28.60
2022-11-14T06:25:02.871Z,30.97
2022-11-14T06:27:24.518Z,29.93
2022-11-14T06:29:45.942Z,31.03
2022-11-14T06:32:07.380Z,30.37
2022-11-14T06:34:28.861Z,33.80
2022-11-14T06:36:50.322Z,28.73
2022-11-14T06:39:11.812Z,31.43
2022-11-14T06:41:33.274Z,27.43
2022-11-14T06:43:54.862Z,28.47
2022-11-14T06:46:19.401Z,29.13
2022-11-14T06:48:42.523Z,27.93
2022-11-14T06:51:05.340Z,26.57
2022-11-14T06:53:29.176Z,27.87
2022-11-14T06:56:04.077Z,24.93
2022-11-14T06:58:30.548Z,24.83
2022-11-14T07:00:52.208Z,25.40
2022-11-14T07:03:13.754Z,27.70
2022-11-14T07:05:35.193Z,22.37
2022-11-14T07:07:57.698Z,22.07
2022-11-14T07:10:19.112Z,22.97
2022-11-14T07:12:40.544Z,27.10
2022-11-14T07:15:01.973Z,28.23
2022-11-14T07:17:27.143Z,33.50
2022-11-14T07:19:51.398Z,24.70
2022-11-14T07:22:12.860Z,24.73
2022-11-14T07:24:35.172Z,24.07
2022-11-14T07:26:56.632Z,25.87
2022-11-14T07:29:18.138Z,25.63
2022-11-14T07:31:40.641Z,21.87
2022-11-14T07:34:02.114Z,22.13
2022-11-14T07:36:24.338Z,22.93
2022-11-14T07:38:45.904Z,23.23
2022-11-14T07:41:13.260Z,23.27
2022-11-14T07:43:34.891Z,22.57
2022-11-14T07:46:03.901Z,24.43
2022-11-14T07:48:25.434Z,23.67
2022-11-14T07:50:47.660Z,26.07
2022-11-14T07:53:09.386Z,22.40
2022-11-14T07:55:30.825Z,21.47
2022-11-14T07:57:53.798Z,20.77
2022-11-14T08:00:15.560Z,23.80
2022-11-14T08:02:37.069Z,23.03
2022-11-14T08:04:58.578Z,23.37
2022-11-14T08:07:20.094Z,42.27
2022-11-14T08:09:41.605Z,32.23
2022-11-14T08:12:03.193Z,26.13
2022-11-14T08:14:24.641Z,31.13
2022-11-14T08:16:46.091Z,25.93
2022-11-14T08:19:07.755Z,23.40
2022-11-14T08:21:29.173Z,21.17
2022-11-14T08:23:50.604Z,26.00
2022-11-14T08:26:12.039Z,21.53
2022-11-14T08:28:33.965Z,21.73
2022-11-14T08:31:00.247Z,20.77
2022-11-14T08:33:21.709Z,23.67
2022-11-14T08:35:43.146Z,23.47
2022-11-14T08:38:04.587Z,23.33
2022-11-14T08:40:26.380Z,26.40
2022-11-14T08:42:47.877Z,24.83
2022-11-14T08:45:09.657Z,24.63
2022-11-14T08:47:31.124Z,24.63
2022-11-14T08:49:52.594Z,23.20
2022-11-14T08:52:16.802Z,23.57
2022-11-14T08:54:38.644Z,26.37
2022-11-14T08:57:00.104Z,22.23
2022-11-14T08:59:21.592Z,24.20
2022-11-14T09:01:43.179Z,23.37
2022-11-14T09:04:05.024Z,21.70
2022-11-14T09:06:26.581Z,22.40
2022-11-14T09:08:48.021Z,21.27
2022-11-14T09:11:10.180Z,23.03
2022-11-14T09:13:35.555Z,21.37
2022-11-14T09:15:57.062Z,22.60
2022-11-14T09:18:18.571Z,19.53
2022-11-14T09:20:40.679Z,22.37
2022-11-14T09:23:03.077Z,21.40
2022-11-14T09:25:26.469Z,20.10
2022-11-14T09:27:47.994Z,22.23
2022-11-14T09:30:10.791Z,22.70
2022-11-14T09:32:32.292Z,24.57
2022-11-14T09:34:53.767Z,22.10
2022-11-14T09:37:15.256Z,22.97
2022-11-14T09:39:40.483Z,21.30
2022-11-14T09:42:39.182Z,22.07
2022-11-14T09:45:03.011Z,20.73
2022-11-14T09:47:42.423Z,21.93
2022-11-14T09:50:26.204Z,20.60
2022-11-14T09:52:54.898Z,21.30
2022-11-14T09:55:36.633Z,21.00
2022-11-14T09:58:01.072Z,21.70
2022-11-14T10:00:25.078Z,20.27
2022-11-14T10:03:01.619Z,20.43
2022-11-14T10:06:01.859Z,21.87
2022-11-14T10:08:59.984Z,20.60
2022-11-14T10:11:47.064Z,18.77
2022-11-14T10:14:29.999Z,18.60
2022-11-14T10:17:10.489Z,18.57
2022-11-14T10:19:46.265Z,18.07
2022-11-14T10:22:37.572Z,21.73
2022-11-14T10:25:07.196Z,18.13
2022-11-14T10:27:43.092Z,16.70
2022-11-14T10:30:16.820Z,18.07
2022-11-14T10:33:10.741Z,16.93
2022-11-14T10:35:53.251Z,16.60
2022-11-14T10:38:19.547Z,17.77
2022-11-14T10:40:47.177Z,18.17
2022-11-14T10:43:40.630Z,16.27
2022-11-14T10:46:17.012Z,15.70
2022-11-14T10:48:48.863Z,17.30
2022-11-14T10:51:13.210Z,16.37
2022-11-14T10:54:19.169Z,15.77
2022-11-14T10:56:54.703Z,16.90
2022-11-14T10:59:16.653Z,14.30
2022-11-14T11:01:46.484Z,15.37
2022-11-14T11:04:22.828Z,15.03
2022-11-14T11:06:44.378Z,17.83
2022-11-14T11:09:45.102Z,18.13
2022-11-14T11:12:08.811Z,17.27
2022-11-14T11:14:30.998Z,15.20
2022-11-14T11:17:08.907Z,14.87
2022-11-14T11:19:30.972Z,18.17
2022-11-14T11:21:53.122Z,15.47
2022-11-14T11:24:31.174Z,16.00
2022-11-14T11:27:20.929Z,16.37
2022-11-14T11:29:42.425Z,14.30
2022-11-14T11:32:04.171Z,14.57
2022-11-14T11:34:28.057Z,17.33
2022-11-14T11:36:55.693Z,13.40
2022-11-14T11:39:25.593Z,19.83
2022-11-14T11:44:38.117Z,15.53
2022-11-14T11:47:03.018Z,16.57
2022-11-14T11:49:30.360Z,13.83
2022-11-14T11:51:55.512Z,14.87
2022-11-14T11:54:19.762Z,15.33
2022-11-14T11:56:44.075Z,17.40
2022-11-14T11:59:26.590Z,14.47
2022-11-14T12:01:48.551Z,15.17
2022-11-14T12:04:10.208Z,15.60
2022-11-14T12:06:41.663Z,14.73
2022-11-14T12:09:12.160Z,16.13
2022-11-14T12:11:37.791Z,14.77
2022-11-14T12:14:36.268Z,16.20
2022-11-14T12:17:04.642Z,16.03
2022-11-14T12:19:26.012Z,18.97
2022-11-14T12:22:12.202Z,70.47
2022-11-14T12:24:48.810Z,87.57
2022-11-14T12:27:39.085Z,15.00
2022-11-14T12:30:09.818Z,14.40
2022-11-14T12:32:42.404Z,13.57
2022-11-14T12:35:06.305Z,14.70
2022-11-14T12:37:37.947Z,14.47
2022-11-14T12:40:08.773Z,17.63
2022-11-14T12:42:31.748Z,14.07
2022-11-14T12:44:53.270Z,13.03
2022-11-14T12:47:20.745Z,13.30
2022-11-14T12:49:47.913Z,13.87
2022-11-14T12:52:41.264Z,13.17
2022-11-14T12:55:02.751Z,13.07
2022-11-14T12:57:48.000Z,14.43
2022-11-14T13:00:10.034Z,15.33
2022-11-14T13:03:03.314Z,12.07
2022-11-14T13:05:39.306Z,12.60
2022-11-14T13:08:27.518Z,12.77
2022-11-14T13:10:48.964Z,12.97
2022-11-14T13:13:34.901Z,12.63
2022-11-14T13:16:20.186Z,12.20
2022-11-14T13:19:18.494Z,11.90
2022-11-14T13:22:11.809Z,12.40
2022-11-14T13:25:02.605Z,11.60
2022-11-14T13:28:00.660Z,10.57
2022-11-14T13:30:16.377Z,13.03
2022-11-14T13:32:40.742Z,13.57
2022-11-14T13:35:11.740Z,12.87
2022-11-14T13:38:04.113Z,11.27
2022-11-14T13:40:28.617Z,10.47
2022-11-14T13:43:04.613Z,10.53
2022-11-14T13:45:37.986Z,12.33
2022-11-14T13:48:30.591Z,10.43
2022-11-14T13:51:00.711Z,9.83
2022-11-14T13:53:32.387Z,14.80
2022-11-14T13:56:04.451Z,10.40
2022-11-14T13:58:59.316Z,11.10
2022-11-14T14:01:30.017Z,10.93
2022-11-14T14:04:28.099Z,31.93
2022-11-14T14:07:16.471Z,16.30
2022-11-14T14:10:02.214Z,11.67
2022-11-14T14:12:45.415Z,10.87
2022-11-14T14:15:25.029Z,11.17
2022-11-14T14:18:05.611Z,10.20
2022-11-14T14:20:36.159Z,8.63
2022-11-14T14:23:27.417Z,9.50
2022-11-14T14:26:00.272Z,8.80
2022-11-14T14:28:41.373Z,11.20
2022-11-14T14:31:20.076Z,11.20
2022-11-14T14:33:42.708Z,11.13
2022-11-14T14:36:04.426Z,9.87
2022-11-14T14:38:28.379Z,10.97
2022-11-14T14:40:50.150Z,8.33
2022-11-14T14:43:25.672Z,8.27
2022-11-14T14:45:51.327Z,8.90
2022-11-14T14:48:21.752Z,8.50
2022-11-14T14:50:50.028Z,10.77
2022-11-14T14:53:24.108Z,7.33
2022-11-14T14:55:56.371Z,8.73
2022-11-14T14:58:24.799Z,8.80
2022-11-14T15:01:07.225Z,8.40
2022-11-14T15:03:37.807Z,8.30
2022-11-14T15:06:01.058Z,10.37
2022-11-14T15:08:22.544Z,7.67
2022-11-14T15:10:44.740Z,8.60
2022-11-14T15:13:06.344Z,9.70
2022-11-14T15:15:28.462Z,8.70
2022-11-14T15:17:50.338Z,8.70
2022-11-14T15:20:23.566Z,10.03
2022-11-14T15:23:02.589Z,9.70
2022-11-14T15:25:24.084Z,9.30
2022-11-14T15:27:50.001Z,8.07
2022-11-14T15:30:25.374Z,8.63
2022-11-14T15:32:52.081Z,9.53
2022-11-14T15:35:24.843Z,11.20
2022-11-14T15:41:20.693Z,9.57
2022-11-14T15:43:45.204Z,10.03
2022-11-14T15:46:43.535Z,13.60
2022-11-14T15:49:11.190Z,11.37
2022-11-14T15:51:39.820Z,9.73
2022-11-14T15:54:01.329Z,14.70
2022-11-14T15:56:23.551Z,11.37
2022-11-14T15:58:49.153Z,10.97
2022-11-14T16:01:18.356Z,13.33
2022-11-14T16:03:39.997Z,13.63
2022-11-14T16:06:01.447Z,13.27
2022-11-14T16:08:22.896Z,10.00
2022-11-14T16:10:44.879Z,11.00
2022-11-14T16:13:06.637Z,8.93
2022-11-14T16:15:28.315Z,9.60
2022-11-14T16:17:50.879Z,9.30
2022-11-14T16:20:19.445Z,9.80
2022-11-14T16:22:40.876Z,12.70
2022-11-14T16:25:02.595Z,11.13
2022-11-14T16:27:24.035Z,12.10
2022-11-14T16:29:45.596Z,15.30
2022-11-14T16:32:10.301Z,16.37
2022-11-14T16:34:31.758Z,13.47
2022-11-14T16:37:02.970Z,14.80
2022-11-14T16:39:24.428Z,13.43
2022-11-14T16:41:45.958Z,13.43
2022-11-14T16:44:13.750Z,11.80
2022-11-14T16:46:35.223Z,9.53
2022-11-14T16:48:56.693Z,11.90
2022-11-14T16:51:46.127Z,10.73
2022-11-14T16:53:59.556Z,11.67
2022-11-14T16:56:21.015Z,11.40
2022-11-14T16:58:42.424Z,10.60
2022-11-14T17:01:06.557Z,10.33
2022-11-14T17:03:32.211Z,13.50
2022-11-14T17:05:53.967Z,11.70
2022-11-14T17:08:15.707Z,10.57
2022-11-14T17:10:44.482Z,10.77
2022-11-14T17:13:05.958Z,10.37
2022-11-14T17:15:27.395Z,12.53
2022-11-14T17:17:50.225Z,12.00
2022-11-14T17:20:11.809Z,13.00
2022-11-14T17:22:33.239Z,9.97
2022-11-14T17:24:54.838Z,9.43
2022-11-14T17:27:16.394Z,10.97
2022-11-14T17:29:37.847Z,9.70
2022-11-14T17:31:59.309Z,9.47
2022-11-14T17:34:20.854Z,10.03
2022-11-14T17:36:42.320Z,9.50
2022-11-14T17:39:04.000Z,10.07
2022-11-14T17:41:25.491Z,9.07
2022-11-14T17:43:47.000Z,10.30
2022-11-14T17:46:15.676Z,10.07
2022-11-14T17:48:37.884Z,10.53
2022-11-14T17:51:12.940Z,9.27
2022-11-14T17:53:34.637Z,12.73
2022-11-14T17:55:57.384Z,9.13
2022-11-14T17:58:18.806Z,8.77
2022-11-14T18:00:40.530Z,11.53
2022-11-14T18:03:02.042Z,12.90
2022-11-14T18:05:23.775Z,8.07
2022-11-14T18:07:45.194Z,9.90
2022-11-14T18:10:06.987Z,9.03
2022-11-14T18:12:28.427Z,8.63
2022-11-14T18:14:49.865Z,8.57
2022-11-14T18:17:13.362Z,11.80
2022-11-14T18:19:35.081Z,9.70
2022-11-14T18:21:56.559Z,10.80
2022-11-14T18:24:18.093Z,9.83
2022-11-14T18:26:39.569Z,11.13
2022-11-14T18:29:04.370Z,9.13
2022-11-14T18:31:25.890Z,8.43
2022-11-14T18:33:47.427Z,11.40
2022-11-14T18:36:12.102Z,8.57
2022-11-14T18:38:33.907Z,10.07
2022-11-14T18:40:57.501Z,9.20
2022-11-14T18:43:19.251Z,7.17
2022-11-14T18:45:40.669Z,7.40
2022-11-14T18:48:02.111Z,10.43
2022-11-14T18:50:23.542Z,7.13
2022-11-14T18:52:45.030Z,7.53
2022-11-14T18:55:07.961Z,8.43
2022-11-14T18:57:29.416Z,8.53
2022-11-14T18:59:50.900Z,8.43
2022-11-14T19:02:12.368Z,7.70
2022-11-14T19:04:33.913Z,9.33
2022-11-14T19:06:56.302Z,7.67
2022-11-14T19:09:22.713Z,8.00
2022-11-14T19:12:02.364Z,9.20
2022-11-14T19:14:24.114Z,11.13
2022-11-14T19:16:45.591Z,8.30
2022-11-14T19:19:08.583Z,7.90
2022-11-14T19:21:30.448Z,7.33
2022-11-14T19:23:51.955Z,9.17
2022-11-14T19:26:13.501Z,7.87
2022-11-14T19:28:35.272Z,9.23
2022-11-14T19:31:04.822Z,8.87
2022-11-14T19:33:26.286Z,8.10
2022-11-14T19:35:47.711Z,10.80
2022-11-14T19:38:09.203Z,8.00
2022-11-14T19:40:30.934Z,8.90
2022-11-14T19:43:00.231Z,8.83
2022-11-14T19:45:21.643Z,12.10
2022-11-14T19:47:43.094Z,9.33
2022-11-14T19:50:04.815Z,8.70
2022-11-14T19:52:26.282Z,13.13
2022-11-14T19:54:49.135Z,7.73
2022-11-14T19:57:10.564Z,6.10
2022-11-14T19:59:32.035Z,8.50
2022-11-14T20:01:55.214Z,8.13
2022-11-14T20:04:17.073Z,13.67
2022-11-14T20:06:38.549Z,6.77
2022-11-14T20:09:08.931Z,10.17
2022-11-14T20:11:30.989Z,7.97
2022-11-14T20:13:52.511Z,10.10
2022-11-14T20:16:18.965Z,6.17
2022-11-14T20:18:42.271Z,6.30
2022-11-14T20:21:08.789Z,9.90
2022-11-14T20:23:30.585Z,6.47
2022-11-14T20:25:52.912Z,5.30
2022-11-14T20:28:14.622Z,5.87
2022-11-14T20:30:40.144Z,6.70
2022-11-14T20:33:01.591Z,3.97
2022-11-14T20:35:22.994Z,7.53
2022-11-14T20:37:44.433Z,5.10
2022-11-14T20:40:06.567Z,5.43
2022-11-14T20:42:28.005Z,4.47
2022-11-14T20:44:49.513Z,6.10
2022-11-14T20:47:11.442Z,4.47
2022-11-14T20:49:32.963Z,5.67
2022-11-14T20:51:54.553Z,5.07
2022-11-14T20:54:16.378Z,6.37
2022-11-14T20:56:37.876Z,6.73
2022-11-14T20:58:59.311Z,4.60
2022-11-14T21:01:20.935Z,4.53
2022-11-14T21:03:42.441Z,6.73
2022-11-14T21:06:04.558Z,8.37
2022-11-14T21:08:25.991Z,7.73
2022-11-14T21:10:50.662Z,8.30
2022-11-14T21:13:38.160Z,4.33
2022-11-14T21:16:00.653Z,6.23
2022-11-14T21:18:22.074Z,5.77
2022-11-14T21:20:43.561Z,5.97
2022-11-14T21:23:05.049Z,8.83
2022-11-14T21:25:26.624Z,5.47
2022-11-14T21:27:48.161Z,6.03
2022-11-14T21:30:09.873Z,5.37
2022-11-14T21:32:31.336Z,6.97
2022-11-14T21:34:52.801Z,7.07
2022-11-14T21:37:14.275Z,7.20
2022-11-14T21:39:35.767Z,5.50
2022-11-14T21:41:57.230Z,7.50
2022-11-14T21:44:19.202Z,7.73
2022-11-14T21:46:40.953Z,7.30
2022-11-14T21:49:02.380Z,5.73
2022-11-14T21:51:26.746Z,7.33
2022-11-14T21:53:49.369Z,10.83
2022-11-14T21:56:28.721Z,5.83
2022-11-14T21:58:51.388Z,4.53
2022-11-14T22:01:15.569Z,5.33
2022-11-14T22:03:56.288Z,6.00
2022-11-14T22:06:17.756Z,6.87
2022-11-14T22:08:39.179Z,5.23
2022-11-14T22:11:01.498Z,5.93
2022-11-14T22:13:22.945Z,6.27
2022-11-14T22:15:44.400Z,6.03
2022-11-14T22:18:05.837Z,5.37
2022-11-14T22:20:27.314Z,4.40
2022-11-14T22:22:48.807Z,5.60
2022-11-14T22:25:10.343Z,7.63
2022-11-14T22:27:31.802Z,6.23
2022-11-14T22:29:53.244Z,6.60
2022-11-14T22:32:14.679Z,5.97
2022-11-14T22:34:36.109Z,3.90
2022-11-14T22:36:57.570Z,4.30
2022-11-14T22:39:18.984Z,5.20
2022-11-14T22:41:40.692Z,5.37
2022-11-14T22:44:02.427Z,4.13
2022-11-14T22:46:24.385Z,4.63
2022-11-14T22:48:47.037Z,5.00
2022-11-14T22:51:10.962Z,6.53
2022-11-14T22:53:34.592Z,4.37
2022-11-14T22:55:56.525Z,6.53
2022-11-14T22:58:17.987Z,4.83
2022-11-14T23:00:39.504Z,5.67
2022-11-14T23:03:00.980Z,4.93
2022-11-14T23:05:22.454Z,4.40
2022-11-14T23:07:43.897Z,6.63
2022-11-14T23:10:05.800Z,5.77
2022-11-14T23:12:27.249Z,5.23
2022-11-14T23:14:48.674Z,5.43
2022-11-14T23:17:10.117Z,6.27
2022-11-14T23:19:31.564Z,5.90
2022-11-14T23:21:53.886Z,5.83
2022-11-14T23:24:15.677Z,4.80
2022-11-14T23:26:37.120Z,5.50
2022-11-14T23:28:59.072Z,5.97
2022-11-14T23:31:21.250Z,4.23
2022-11-14T23:33:42.698Z,8.83
2022-11-14T23:36:04.795Z,5.37
2022-11-14T23:38:26.426Z,7.20
2022-11-14T23:40:55.402Z,8.67
2022-11-14T23:43:16.861Z,4.00
2022-11-14T23:45:42.510Z,5.43
2022-11-14T23:48:04.093Z,6.53
2022-11-14T23:50:25.543Z,6.13
2022-11-14T23:52:47.016Z,5.77
2022-11-14T23:55:08.463Z,4.80
2022-11-14T23:57:31.090Z,5.80
2022-11-14T23:59:53.078Z,5.27
